Time;durP1;ratioP1;P1;durP2;ratioP2;P2;SDS_P1;SDS_P2;PMS_P1;PMS_P2;Temp;Humidity;BMP_temperature;BMP_pressure;BME280_temperature;BME280_humidity;BME280_pressure;Samples;Min_cycle;Max_cycle;Signal;HPM_P1;HPM_P2
2021/11/27 00:01:07;;;;;;;20.83;11.63;;;;;;;3.19;100.00;99412.39;1724116;83;21051;-73
2021/11/27 00:03:35;;;;;;;21.07;10.97;;;;;;;3.23;100.00;99412.45;1718377;83;21050;-73
2021/11/27 00:06:02;;;;;;;23.33;11.87;;;;;;;3.26;100.00;99411.81;1693236;85;21076;-74
2021/11/27 00:08:30;;;;;;;21.33;11.90;;;;;;;3.28;100.00;99410.71;1710589;83;21002;-73
2021/11/27 00:10:58;;;;;;;21.83;11.83;;;;;;;3.30;100.00;99402.06;1752169;82;21032;-72
2021/11/27 00:13:26;;;;;;;21.30;11.03;;;;;;;3.33;100.00;99397.78;1729156;81;21080;-73
2021/11/27 00:15:52;;;;;;;20.03;10.30;;;;;;;3.35;100.00;99393.13;1741741;81;21021;-73
2021/11/27 00:18:21;;;;;;;22.50;12.10;;;;;;;3.36;100.00;99388.12;1729623;81;21496;-72
2021/11/27 00:20:55;;;;;;;20.63;10.93;;;;;;;3.37;100.00;99371.62;1728197;81;21045;-72
2021/11/27 00:23:23;;;;;;;21.67;10.93;;;;;;;3.40;100.00;99372.17;1661948;86;21569;-72
2021/11/27 00:25:52;;;;;;;20.20;10.73;;;;;;;3.41;100.00;99360.48;1656938;85;21014;-73
2021/11/27 00:28:18;;;;;;;21.90;10.87;;;;;;;3.42;100.00;99359.51;1659836;85;21069;-72
2021/11/27 00:30:45;;;;;;;21.90;11.87;;;;;;;3.41;100.00;99347.12;1663088;86;21113;-72
2021/11/27 00:33:12;;;;;;;26.40;12.30;;;;;;;3.41;100.00;99336.43;1659532;86;21054;-74
2021/11/27 00:35:40;;;;;;;24.47;11.70;;;;;;;3.42;100.00;99328.77;1663464;86;21128;-74
2021/11/27 00:38:07;;;;;;;18.70;10.33;;;;;;;3.42;100.00;99323.93;1660464;85;21086;-73
2021/11/27 00:40:36;;;;;;;22.30;11.40;;;;;;;3.41;100.00;99323.06;1657742;85;21062;-72
2021/11/27 00:43:05;;;;;;;23.93;11.70;;;;;;;3.39;100.00;99317.53;1660544;86;21066;-73
2021/11/27 00:45:32;;;;;;;20.90;10.70;;;;;;;3.38;100.00;99333.20;1661459;85;21082;-73
2021/11/27 00:48:00;;;;;;;19.83;10.40;;;;;;;3.38;100.00;99296.65;1662096;86;21093;-73
2021/11/27 00:50:37;;;;;;;22.50;11.17;;;;;;;3.39;100.00;99295.64;1663060;86;21022;-73
2021/11/27 00:53:04;;;;;;;24.13;11.60;;;;;;;3.39;100.00;99284.12;1657054;84;21038;-72
2021/11/27 00:55:33;;;;;;;21.27;11.20;;;;;;;3.38;100.00;99290.44;1660403;86;21058;-73
2021/11/27 00:58:00;;;;;;;24.07;12.70;;;;;;;3.38;100.00;99284.63;1662538;86;21046;-73
2021/11/27 01:00:32;;;;;;;24.40;13.53;;;;;;;3.37;100.00;99272.73;1662257;86;21050;-73
2021/11/27 01:03:01;;;;;;;24.52;12.90;;;;;;;3.39;100.00;99282.28;1663501;85;21023;-73
2021/11/27 01:05:29;;;;;;;23.17;12.37;;;;;;;3.40;100.00;99275.13;1637975;86;21022;-72
2021/11/27 01:07:56;;;;;;;22.50;11.97;;;;;;;3.42;100.00;99273.16;1638979;86;21681;-72
2021/11/27 01:10:25;;;;;;;21.43;11.43;;;;;;;3.42;100.00;99273.98;1618403;87;21089;-73
2021/11/27 01:12:54;;;;;;;24.27;12.20;;;;;;;3.42;100.00;99265.97;1633615;88;21537;-73
2021/11/27 01:15:25;;;;;;;22.03;11.03;;;;;;;3.45;100.00;99259.98;1623601;87;21122;-73
2021/11/27 01:17:53;;;;;;;20.90;10.90;;;;;;;3.46;100.00;99271.03;1619230;88;21126;-74
2021/11/27 01:20:24;;;;;;;21.47;11.20;;;;;;;3.47;100.00;99266.02;1644064;86;21058;-73
2021/11/27 01:22:52;;;;;;;19.73;10.33;;;;;;;3.46;100.00;99257.16;1659619;86;21037;-73
2021/11/27 01:25:20;;;;;;;21.27;10.73;;;;;;;3.45;100.00;99255.97;1661199;85;21102;-73
2021/11/27 01:27:47;;;;;;;20.93;10.60;;;;;;;3.44;100.00;99259.65;1659210;85;21070;-74
2021/11/27 01:30:13;;;;;;;20.80;10.43;;;;;;;3.43;100.00;99260.12;1619688;87;21111;-72
2021/11/27 01:32:41;;;;;;;19.63;10.10;;;;;;;3.44;100.00;99260.98;1625891;87;21070;-74
2021/11/27 01:35:09;;;;;;;22.87;11.80;;;;;;;3.44;100.00;99254.30;1640846;86;21022;-73
2021/11/27 01:37:36;;;;;;;23.13;12.10;;;;;;;3.45;100.00;99255.97;1616732;87;21180;-74
2021/11/27 01:40:06;;;;;;;19.83;10.73;;;;;;;3.45;100.00;99247.95;1626206;87;21054;-73
2021/11/27 01:42:32;;;;;;;19.53;10.47;;;;;;;3.46;100.00;99246.48;1627028;88;21102;-74
2021/11/27 01:45:00;;;;;;;20.53;10.83;;;;;;;3.48;100.00;99235.14;1621562;87;21187;-74
2021/11/27 01:47:26;;;;;;;20.53;11.00;;;;;;;3.49;100.00;99221.27;1659375;85;21134;-73
2021/11/27 01:49:53;;;;;;;20.80;11.20;;;;;;;3.49;100.00;99223.94;1625661;87;21104;-74
2021/11/27 01:52:20;;;;;;;21.17;10.87;;;;;;;3.49;100.00;99214.59;1610232;88;21088;-74
2021/11/27 01:54:48;;;;;;;19.83;10.60;;;;;;;3.49;100.00;99213.25;1612239;87;21535;-73
2021/11/27 01:57:14;;;;;;;20.43;10.80;;;;;;;3.49;100.00;99210.58;1611732;88;21093;-73
2021/11/27 01:59:42;;;;;;;21.40;10.90;;;;;;;3.49;100.00;99203.90;1613228;87;21085;-73
2021/11/27 02:02:12;;;;;;;20.43;10.63;;;;;;;3.51;100.00;99203.28;1656724;85;21575;-73
2021/11/27 02:04:39;;;;;;;20.83;9.87;;;;;;;3.53;100.00;99204.81;1659318;86;21058;-73
2021/11/27 02:07:07;;;;;;;20.17;9.80;;;;;;;3.56;100.00;99198.31;1660405;84;21017;-73
2021/11/27 02:09:35;;;;;;;18.90;10.60;;;;;;;3.59;100.00;99198.03;1607656;88;21595;-74
2021/11/27 02:12:08;;;;;;;21.17;10.67;;;;;;;3.64;100.00;99204.28;1652681;86;20998;-73
2021/11/27 02:14:37;;;;;;;19.87;10.27;;;;;;;3.68;100.00;99204.33;1663535;81;21008;-71
2021/11/27 02:17:10;;;;;;;21.13;11.30;;;;;;;3.73;100.00;99203.39;1759590;81;21015;-74
2021/11/27 02:19:38;;;;;;;20.50;10.80;;;;;;;3.76;100.00;99202.60;1754776;81;21034;-74
2021/11/27 02:22:06;;;;;;;20.87;10.23;;;;;;;3.80;100.00;99203.98;1749799;81;21065;-73
2021/11/27 02:24:35;;;;;;;19.73;10.23;;;;;;;3.86;100.00;99201.23;1745125;81;21086;-74
2021/11/27 02:27:03;;;;;;;18.87;9.73;;;;;;;3.89;100.00;99192.05;1752088;81;21034;-74
2021/11/27 02:29:31;;;;;;;19.80;9.97;;;;;;;3.93;100.00;99186.74;1759844;81;21073;-73
2021/11/27 02:31:59;;;;;;;18.53;9.93;;;;;;;3.97;100.00;99181.46;1756547;81;21073;-74
2021/11/27 02:34:26;;;;;;;24.60;10.93;;;;;;;4.01;100.00;99183.34;1764439;81;21506;-73
2021/11/27 02:36:58;;;;;;;21.90;9.47;;;;;;;4.04;100.00;99184.36;1749796;81;21018;-73
2021/11/27 02:39:26;;;;;;;22.37;10.07;;;;;;;4.09;100.00;99188.77;1753215;81;21018;-73
2021/11/27 02:41:54;;;;;;;18.67;9.67;;;;;;;4.14;100.00;99187.81;1757085;81;21034;-73
2021/11/27 02:44:24;;;;;;;19.27;9.87;;;;;;;4.19;100.00;99186.88;1751555;81;21061;-74
2021/11/27 02:46:52;;;;;;;22.47;11.33;;;;;;;4.21;100.00;99187.56;1662576;85;21124;-73
2021/11/27 02:49:18;;;;;;;18.30;8.77;;;;;;;4.25;100.00;99189.44;1661890;85;21046;-73
2021/11/27 02:51:47;;;;;;;20.23;9.30;;;;;;;4.28;100.00;99183.79;1650492;86;21058;-74
2021/11/27 02:54:14;;;;;;;18.10;8.67;;;;;;;4.32;100.00;99181.14;1657812;85;21015;-73
2021/11/27 02:56:43;;;;;;;19.30;8.63;;;;;;;4.37;100.00;99174.84;1658337;85;21014;-74
2021/11/27 02:59:12;;;;;;;17.77;8.77;;;;;;;4.41;100.00;99174.90;1653322;85;21661;-73
2021/11/27 03:01:42;;;;;;;20.97;9.27;;;;;;;4.45;100.00;99175.44;1658303;85;21049;-73
2021/11/27 03:04:09;;;;;;;19.83;9.97;;;;;;;4.47;100.00;99164.91;1637490;86;21128;-72
2021/11/27 03:06:36;;;;;;;22.23;10.90;;;;;;;4.51;100.00;99163.59;1631814;87;21590;-73
2021/11/27 03:09:05;;;;;;;18.27;10.40;;;;;;;4.55;100.00;99169.48;1603461;88;21145;-73
2021/11/27 03:11:32;;;;;;;21.40;11.70;;;;;;;4.59;100.00;99162.84;1611409;88;21065;-73
2021/11/27 03:13:59;;;;;;;25.33;12.23;;;;;;;4.63;100.00;99153.50;1613391;87;21075;-73
2021/11/27 03:16:32;;;;;;;22.50;11.27;;;;;;;4.65;100.00;99147.48;1606115;89;21042;-72
2021/11/27 03:18:59;;;;;;;21.90;11.70;;;;;;;4.68;100.00;99142.33;1607748;88;21144;-74
2021/11/27 03:21:27;;;;;;;18.87;9.40;;;;;;;4.70;100.00;99126.95;1605199;89;21055;-73
2021/11/27 03:23:53;;;;;;;21.10;9.83;;;;;;;4.74;100.00;99127.80;1603642;89;21107;-73
2021/11/27 03:26:20;;;;;;;17.93;8.33;;;;;;;4.79;100.00;99116.63;1601129;87;21078;-74
2021/11/27 03:28:48;;;;;;;16.73;8.87;;;;;;;4.84;100.00;99117.52;1593027;89;21071;-74
2021/11/27 03:31:14;;;;;;;18.13;8.27;;;;;;;4.88;100.00;99111.66;1603707;88;21635;-74
2021/11/27 03:33:41;;;;;;;16.47;8.37;;;;;;;4.92;100.00;99105.49;1608743;88;21118;-73
2021/11/27 03:36:08;;;;;;;18.93;9.07;;;;;;;4.98;100.00;99099.52;1605041;89;21134;-71
2021/11/27 03:38:35;;;;;;;17.83;9.47;;;;;;;5.04;100.00;99096.19;1607181;88;21094;-73
2021/11/27 03:41:03;;;;;;;15.57;7.97;;;;;;;5.12;100.00;99092.23;1607992;88;21081;-75
2021/11/27 03:43:30;;;;;;;16.67;7.27;;;;;;;5.21;100.00;99091.77;1620181;84;21105;-73
2021/11/27 03:46:00;;;;;;;16.93;7.03;;;;;;;5.34;100.00;99094.00;1695251;84;21090;-73
2021/11/27 03:48:40;;;;;;;15.00;6.00;;;;;;;5.46;100.00;99088.70;1689193;84;21042;-73
2021/11/27 03:51:16;;;;;;;18.73;6.97;;;;;;;5.56;100.00;99091.27;1705060;83;21067;-71
2021/11/27 03:53:43;;;;;;;13.23;6.17;;;;;;;5.66;100.00;99091.11;1680119;84;21088;-73
2021/11/27 03:56:17;;;;;;;14.47;6.10;;;;;;;5.71;100.00;99086.94;1726618;83;21062;-73
2021/11/27 03:58:46;;;;;;;11.83;6.08;;;;;;;5.77;100.00;99087.28;1709564;83;21002;-72
2021/11/27 04:01:15;;;;;;;14.40;6.07;;;;;;;5.84;100.00;99080.27;1693610;82;21550;-73
2021/11/27 04:03:43;;;;;;;12.50;6.53;;;;;;;5.87;100.00;99078.09;1707344;83;21019;-73
2021/11/27 04:06:10;;;;;;;13.03;6.30;;;;;;;5.90;100.00;99069.72;1700682;82;21014;-73
2021/11/27 04:08:36;;;;;;;14.83;6.30;;;;;;;5.95;100.00;99075.08;1726615;81;21556;-72
2021/11/27 04:11:05;;;;;;;11.60;5.80;;;;;;;5.95;100.00;99066.55;1732693;81;21082;-74
2021/11/27 04:13:32;;;;;;;12.40;6.37;;;;;;;5.96;100.00;99069.59;1738032;81;21056;-75
2021/11/27 04:16:00;;;;;;;12.03;6.30;;;;;;;6.00;100.00;99070.09;1735151;82;21604;-74
2021/11/27 04:18:27;;;;;;;11.77;6.37;;;;;;;6.02;100.00;99068.08;1741346;81;21507;-74
2021/11/27 04:20:56;;;;;;;11.37;5.90;;;;;;;6.05;100.00;99063.22;1746249;81;21028;-74
2021/11/27 04:23:23;;;;;;;12.07;5.90;;;;;;;6.07;100.00;99067.08;1721353;81;21517;-73
2021/11/27 04:25:51;;;;;;;11.97;5.80;;;;;;;6.07;100.00;99065.73;1741467;81;20979;-74
2021/11/27 04:28:19;;;;;;;11.70;5.90;;;;;;;6.10;100.00;99059.22;1747822;81;21085;-75
2021/11/27 04:30:46;;;;;;;12.17;5.77;;;;;;;6.15;100.00;99066.27;1744616;81;21074;-74
2021/11/27 04:33:13;;;;;;;12.43;5.67;;;;;;;6.18;100.00;99061.41;1743285;81;20999;-74
2021/11/27 04:35:48;;;;;;;10.13;5.50;;;;;;;6.20;100.00;99057.22;1621252;86;21182;-73
2021/11/27 04:38:17;;;;;;;9.83;5.73;;;;;;;6.23;100.00;99051.49;1655636;84;21532;-74
2021/11/27 04:40:44;;;;;;;13.13;5.90;;;;;;;6.25;100.00;99050.34;1661801;86;21075;-74
2021/11/27 04:43:14;;;;;;;13.43;6.10;;;;;;;6.26;100.00;99054.68;1639773;86;21119;-74
2021/11/27 04:45:41;;;;;;;12.97;5.53;;;;;;;6.30;100.00;99057.88;1661727;86;21024;-74
2021/11/27 04:48:08;;;;;;;11.20;5.47;;;;;;;6.33;100.00;99058.89;1661859;86;21039;-74
2021/11/27 04:50:36;;;;;;;12.97;5.67;;;;;;;6.35;100.00;99069.46;1661590;86;21099;-74
2021/11/27 04:53:05;;;;;;;9.50;5.20;;;;;;;6.37;100.00;99068.27;1661738;86;21051;-73
2021/11/27 04:55:33;;;;;;;9.70;5.30;;;;;;;6.39;100.00;99060.91;1661596;86;21079;-74
2021/11/27 04:58:02;;;;;;;13.33;5.83;;;;;;;6.41;100.00;99065.61;1661814;86;21051;-73
2021/11/27 05:00:34;;;;;;;12.33;5.10;;;;;;;6.44;100.00;99080.53;1661923;86;21075;-74
2021/11/27 05:03:02;;;;;;;12.80;5.65;;;;;;;6.45;100.00;99066.94;1572298;90;21075;-74
2021/11/27 05:05:29;;;;;;;12.17;5.80;;;;;;;6.49;100.00;99062.58;1588506;90;21182;-74
2021/11/27 05:07:56;;;;;;;13.80;5.40;;;;;;;6.49;100.00;99061.24;1599497;89;21549;-75
2021/11/27 05:10:24;;;;;;;11.17;5.90;;;;;;;6.52;100.00;99059.05;1601854;88;21111;-74
2021/11/27 05:12:52;;;;;;;14.13;5.90;;;;;;;6.51;100.00;99051.99;1603964;87;21118;-73
2021/11/27 05:15:19;;;;;;;12.17;5.40;;;;;;;6.53;100.00;99043.77;1628539;87;21094;-74
2021/11/27 05:17:48;;;;;;;10.90;5.43;;;;;;;6.53;100.00;99051.31;1633607;86;21070;-74
2021/11/27 05:20:26;;;;;;;11.37;5.90;;;;;;;6.53;100.00;99048.63;1527954;92;21092;-74
2021/11/27 05:22:53;;;;;;;13.60;6.37;;;;;;;6.53;100.00;99048.63;1532647;92;21137;-74
2021/11/27 05:25:20;;;;;;;12.70;5.73;;;;;;;6.55;100.00;99047.98;1530172;92;21091;-74
2021/11/27 05:28:00;;;;;;;10.93;5.33;;;;;;;6.56;100.00;99039.41;1512801;94;21153;-74
2021/11/27 05:30:32;;;;;;;11.97;5.03;;;;;;;6.57;100.00;99032.53;1441731;100;21110;-73
2021/11/27 05:35:29;;;;;;;12.63;5.67;;;;;;;6.59;100.00;99038.56;1462179;98;21639;-72
2021/11/27 05:37:56;;;;;;;11.07;5.30;;;;;;;6.60;100.00;99030.83;1464762;98;21077;-74
2021/11/27 05:40:25;;;;;;;10.73;5.43;;;;;;;6.63;100.00;99035.03;1464643;98;21121;-74
2021/11/27 05:42:52;;;;;;;13.03;5.40;;;;;;;6.62;100.00;99037.38;1446621;98;21093;-74
2021/11/27 05:45:19;;;;;;;11.90;4.87;;;;;;;6.64;100.00;99025.98;1464626;98;21121;-75
2021/11/27 05:47:46;;;;;;;11.83;5.70;;;;;;;6.64;100.00;99018.75;1464931;98;21057;-74
2021/11/27 05:50:15;;;;;;;10.33;5.30;;;;;;;6.65;100.00;99023.61;1465070;98;21129;-74
2021/11/27 05:52:42;;;;;;;11.53;4.97;;;;;;;6.67;100.00;99019.41;1465215;98;21141;-75
2021/11/27 05:55:09;;;;;;;12.77;4.83;;;;;;;6.68;100.00;99027.82;1464750;98;21586;-75
2021/11/27 05:57:38;;;;;;;9.37;4.83;;;;;;;6.70;100.00;99023.11;1465822;98;21076;-77
2021/11/27 06:00:07;;;;;;;11.40;4.67;;;;;;;6.72;100.00;99023.26;1447483;99;21648;-74
2021/11/27 06:02:35;;;;;;;9.53;4.60;;;;;;;6.73;100.00;99013.34;1435912;100;21108;-74
2021/11/27 06:05:03;;;;;;;10.47;4.80;;;;;;;6.74;100.00;99014.52;1437273;100;21247;-74
2021/11/27 06:07:30;;;;;;;10.60;4.70;;;;;;;6.76;100.00;99010.32;1452846;97;21106;-75
2021/11/27 06:09:58;;;;;;;9.40;4.70;;;;;;;6.78;100.00;99008.30;1484137;97;21093;-73
2021/11/27 06:12:24;;;;;;;8.90;4.37;;;;;;;6.78;100.00;99002.92;1484030;97;21191;-74
2021/11/27 06:14:54;;;;;;;8.17;4.03;;;;;;;6.80;100.00;99000.93;1483953;97;21155;-74
2021/11/27 06:17:21;;;;;;;8.00;4.20;;;;;;;6.81;100.00;98997.21;1451280;97;21192;-76
2021/11/27 06:19:49;;;;;;;8.37;4.70;;;;;;;6.83;100.00;98993.84;1447794;99;21683;-72
2021/11/27 06:22:16;;;;;;;10.17;4.50;;;;;;;6.84;100.00;98998.22;1464411;96;21145;-73
2021/11/27 06:24:44;;;;;;;7.33;4.20;;;;;;;6.86;100.00;98991.33;1492746;92;21089;-75
2021/11/27 06:27:13;;;;;;;8.93;4.53;;;;;;;6.85;100.00;98993.16;1471225;95;21080;-73
2021/11/27 06:29:40;;;;;;;14.60;7.40;;;;;;;6.86;100.00;98996.70;1486795;95;21089;-74
2021/11/27 06:32:09;;;;;;;11.63;4.90;;;;;;;6.86;100.00;98979.23;1486046;96;21689;-70
2021/11/27 06:34:37;;;;;;;9.73;4.63;;;;;;;6.87;100.00;98978.21;1486730;94;21244;-73
2021/11/27 06:37:04;;;;;;;7.70;4.03;;;;;;;6.87;100.00;98984.92;1484323;95;21127;-74
2021/11/27 06:39:30;;;;;;;8.13;4.33;;;;;;;6.87;100.00;98972.84;1488817;91;21030;-74
2021/11/27 06:41:57;;;;;;;8.30;4.37;;;;;;;6.87;100.00;98972.84;1626482;87;21114;-74
2021/11/27 06:44:30;;;;;;;6.70;4.03;;;;;;;6.87;100.00;98968.32;1575005;90;21047;-73
2021/11/27 06:46:57;;;;;;;6.80;4.00;;;;;;;6.88;100.00;98965.13;1576361;90;21651;-72
2021/11/27 06:49:24;;;;;;;9.03;4.43;;;;;;;6.87;100.00;98962.09;1588217;88;21489;-70
2021/11/27 06:51:51;;;;;;;7.07;3.90;;;;;;;6.85;100.00;98951.51;1568407;90;21237;-73
2021/11/27 06:54:18;;;;;;;9.50;4.40;;;;;;;6.86;100.00;98964.46;1588559;90;21472;-73
2021/11/27 06:56:46;;;;;;;8.77;4.93;;;;;;;6.85;100.00;98944.80;1627322;85;21085;-75
2021/11/27 06:59:13;;;;;;;9.40;5.10;;;;;;;6.84;100.00;98953.37;1604891;88;21600;-72
2021/11/27 07:01:44;;;;;;;8.57;5.03;;;;;;;6.83;100.00;98938.76;1595459;88;21091;-75
2021/11/27 07:04:29;;;;;;;10.10;5.53;;;;;;;6.81;100.00;98941.62;1587616;88;21547;-71
2021/11/27 07:06:58;;;;;;;9.67;5.03;;;;;;;6.82;100.00;98943.30;1588551;88;21014;-71
2021/11/27 07:09:43;;;;;;;17.50;10.87;;;;;;;6.81;100.00;98948.33;1613273;88;21133;-73
2021/11/27 07:12:12;;;;;;;9.87;5.23;;;;;;;6.82;100.00;98939.27;1610768;87;21027;-73
2021/11/27 07:14:41;;;;;;;12.23;5.57;;;;;;;6.83;100.00;98936.93;1596098;87;21076;-72
2021/11/27 07:17:08;;;;;;;11.77;5.10;;;;;;;6.84;100.00;98929.70;1586490;89;21058;-68
2021/11/27 07:19:36;;;;;;;8.07;4.23;;;;;;;6.86;100.00;98934.91;1585888;89;21153;-72
2021/11/27 07:22:03;;;;;;;9.23;4.63;;;;;;;6.86;100.00;98939.77;1625461;86;21587;-71
2021/11/27 07:24:31;;;;;;;10.23;4.50;;;;;;;6.88;100.00;98927.50;1616449;86;21089;-71
2021/11/27 07:26:59;;;;;;;9.73;4.70;;;;;;;6.90;100.00;98916.06;1626906;87;21543;-67
2021/11/27 07:29:32;;;;;;;6.77;3.90;;;;;;;6.92;100.00;98915.38;1641670;86;21109;-68
2021/11/27 07:31:56;;;;;;;9.70;4.17;;;;;;;6.94;100.00;98914.69;1644828;86;21614;-69
2021/11/27 07:34:22;;;;;;;9.97;4.67;;;;;;;6.95;100.00;98913.17;1646325;86;21037;-68
2021/11/27 07:36:49;;;;;;;8.90;4.57;;;;;;;6.98;100.00;98929.48;1656590;84;21006;-66
2021/11/27 07:39:16;;;;;;;10.43;6.33;;;;;;;6.99;100.00;98927.96;1693523;83;21010;-66
2021/11/27 07:41:43;;;;;;;11.37;5.03;;;;;;;7.01;100.00;98922.38;1682979;83;21566;-68
2021/11/27 07:44:12;;;;;;;11.77;4.97;;;;;;;7.03;100.00;98918.52;1695302;84;21045;-69
2021/11/27 07:46:56;;;;;;;14.23;7.97;;;;;;;7.03;100.00;98915.84;1707467;82;21074;-69
2021/11/27 07:49:40;;;;;;;7.97;4.63;;;;;;;7.02;100.00;98901.23;1715522;83;21035;-70
2021/11/27 07:52:09;;;;;;;12.67;5.10;;;;;;;7.02;100.00;98910.12;1654943;85;21299;-70
2021/11/27 09:21:24;;;;;;;16.83;9.23;;;;;;;7.41;100.00;98763.16;1844024;77;22824;-68
2021/11/27 09:23:52;;;;;;;23.30;10.80;;;;;;;7.50;100.00;98737.85;1800312;79;21000;-67
2021/11/27 09:26:20;;;;;;;18.40;9.80;;;;;;;7.55;100.00;98730.59;1792568;78;21021;-70
2021/11/27 09:28:47;;;;;;;21.53;10.07;;;;;;;7.61;100.00;98732.53;1791421;80;21045;-67
2021/11/27 09:31:14;;;;;;;20.30;10.43;;;;;;;7.65;100.00;98729.82;1794912;79;21085;-68
2021/11/27 09:33:42;;;;;;;20.60;10.47;;;;;;;7.70;100.00;98727.91;1765364;80;21490;-70
2021/11/27 09:36:14;;;;;;;20.60;10.27;;;;;;;7.73;100.00;98724.33;1794206;79;21505;-68
2021/11/27 09:38:40;;;;;;;20.50;10.00;;;;;;;7.77;100.00;98718.06;1795011;80;21020;-67
2021/11/27 09:43:46;;;;;;;18.93;9.23;;;;;;;7.80;100.00;98698.87;1708588;83;21070;-68
2021/11/27 09:46:14;;;;;;;21.03;10.60;;;;;;;7.80;100.00;98707.77;1708896;84;20997;-67
2021/11/27 09:48:46;;;;;;;21.50;10.27;;;;;;;7.82;100.00;98700.03;1708581;84;21084;-68
2021/11/27 09:51:11;;;;;;;22.67;11.43;;;;;;;7.83;100.00;98707.92;1677880;85;21018;-67
2021/11/27 09:53:38;;;;;;;23.27;12.80;;;;;;;7.84;100.00;98708.23;1662850;86;21055;-68
2021/11/27 09:56:06;;;;;;;25.07;12.80;;;;;;;7.88;100.00;98704.17;1680962;85;20994;-67
2021/11/27 09:58:33;;;;;;;26.10;14.17;;;;;;;7.93;100.00;98709.83;1647076;87;21008;-67
2021/11/27 10:01:03;;;;;;;29.63;15.07;;;;;;;7.98;100.00;98709.25;1677891;85;21073;-71
2021/11/27 10:03:30;;;;;;;28.93;16.03;;;;;;;8.03;100.00;98719.47;1663337;86;20995;-66
2021/11/27 10:05:58;;;;;;;25.70;14.33;;;;;;;8.08;100.00;98717.05;1680866;85;21006;-67
2021/11/27 10:08:25;;;;;;;25.17;11.77;;;;;;;8.13;100.00;98716.80;1647614;87;21069;-70
2021/11/27 10:10:54;;;;;;;22.30;11.87;;;;;;;8.17;100.00;98715.92;1677932;85;21467;-67
2021/11/27 10:13:22;;;;;;;22.63;10.73;;;;;;;8.24;100.00;98714.66;1663316;86;21051;-67
2021/11/27 10:15:51;;;;;;;20.97;9.43;;;;;;;8.28;100.00;98709.21;1677939;85;21062;-67
2021/11/27 10:18:21;;;;;;;21.33;9.83;;;;;;;8.31;100.00;98706.98;1678570;85;21099;-66
2021/11/27 10:21:15;;;;;;;21.83;10.97;;;;;;;8.35;100.00;98699.34;1690731;84;21548;-68
2021/11/27 10:23:43;;;;;;;21.27;10.90;;;;;;;8.40;100.00;98705.53;1687366;85;21082;-66
2021/11/27 10:26:36;;;;;;;23.13;11.57;;;;;;;8.43;100.00;98699.28;1702443;84;21042;-67
2021/11/27 10:29:26;;;;;;;24.90;12.87;;;;;;;8.47;100.00;98691.13;1701900;84;21471;-67
2021/11/27 10:34:52;;;;;;;26.07;12.30;;;;;;;8.54;100.00;98692.03;1652244;86;21012;-68
2021/11/27 10:37:35;;;;;;;23.20;11.80;;;;;;;8.60;100.00;98689.08;1659154;86;21513;-68
2021/11/27 10:40:12;;;;;;;20.15;10.23;;;;;;;8.67;100.00;98698.59;1674266;83;21027;-68
2021/11/27 10:42:47;;;;;;;23.20;10.20;;;;;;;8.72;100.00;98690.77;1653410;87;21177;-67
2021/11/27 10:45:32;;;;;;;23.27;9.87;;;;;;;8.76;100.00;98687.17;1691180;85;21034;-69
2021/11/27 10:48:13;;;;;;;22.27;11.00;;;;;;;8.78;100.00;98685.94;1689401;85;20991;-70
2021/11/27 10:50:55;;;;;;;23.43;10.47;;;;;;;8.81;100.00;98689.61;1668053;86;21034;-67
2021/11/27 10:53:27;;;;;;;23.20;10.70;;;;;;;8.84;100.00;98696.49;1668137;86;21532;-71
2021/11/27 10:56:11;;;;;;;38.88;20.85;;;;;;;8.86;100.00;98695.78;1587266;90;21097;-71
2021/11/27 10:58:59;;;;;;;;;;;;;;;8.88;100.00;98695.06;1589129;90;21078;-70
2021/11/27 11:01:27;;;;;;;22.10;11.03;;;;;;;8.88;100.00;98698.59;1587133;90;20120;-70
2021/11/27 11:03:54;;;;;;;24.07;10.67;;;;;;;8.88;100.00;98695.06;1586732;90;21037;-70
2021/11/27 11:06:26;;;;;;;22.03;10.63;;;;;;;8.88;100.00;98691.02;1586785;90;21150;-70
2021/11/27 11:08:53;;;;;;;26.80;13.47;;;;;;;8.89;100.00;98695.41;1586954;90;21526;-70
2021/11/27 11:11:25;;;;;;;29.53;15.47;;;;;;;8.93;100.00;98695.33;1586807;89;21192;-71
2021/11/27 11:13:55;;;;;;;21.57;11.20;;;;;;;8.97;100.00;98696.59;1586402;90;21049;-70
2021/11/27 11:16:30;;;;;;;22.93;11.07;;;;;;;9.01;100.00;98696.55;1586972;90;21073;-70
2021/11/27 11:19:20;;;;;;;24.47;13.10;;;;;;;9.06;100.00;98687.86;1568942;91;21109;-71
2021/11/27 11:22:13;;;;;;;24.90;12.00;;;;;;;9.12;100.00;98685.75;1561408;91;21068;-70
2021/11/27 11:24:43;;;;;;;28.10;13.63;;;;;;;9.16;100.00;98680.80;1526321;94;21110;-71
2021/11/27 11:27:11;;;;;;;23.97;13.00;;;;;;;9.22;100.00;98688.09;1526500;94;21098;-70
2021/11/27 11:29:48;;;;;;;22.63;12.40;;;;;;;9.28;100.00;98684.11;1526119;94;21560;-71
2021/11/27 11:32:23;;;;;;;24.73;11.37;;;;;;;9.35;100.00;98691.41;1526423;94;21576;-69
2021/11/27 11:34:55;;;;;;;24.17;12.53;;;;;;;9.41;100.00;98687.94;1526379;94;21598;-70
2021/11/27 11:37:22;;;;;;;24.33;12.53;;;;;;;9.46;100.00;98689.01;1526444;94;21153;-70
2021/11/27 11:39:49;;;;;;;24.63;11.13;;;;;;;9.49;100.00;98684.58;1562384;90;21051;-70
2021/11/27 11:42:17;;;;;;;24.60;11.03;;;;;;;9.55;100.00;98687.52;1575081;91;21126;-70
2021/11/27 11:44:46;;;;;;;22.70;10.90;;;;;;;9.60;100.00;98687.23;1575468;91;21544;-71
2021/11/27 11:47:14;;;;;;;25.07;10.93;;;;;;;9.65;100.00;98688.83;1568445;91;21129;-70
2021/11/27 11:49:42;;;;;;;24.03;11.93;;;;;;;9.66;100.00;98685.08;1564573;92;21099;-69
2021/11/27 11:52:17;;;;;;;26.80;12.27;;;;;;;9.68;100.00;98680.34;1545269;92;21083;-70
2021/11/27 11:54:44;;;;;;;24.13;10.67;;;;;;;9.70;100.00;98677.42;1562004;92;21152;-70
2021/11/27 11:57:12;;;;;;;22.80;11.13;;;;;;;9.73;100.00;98680.25;1564803;92;21088;-70
2021/11/27 11:59:40;;;;;;;20.93;10.40;;;;;;;9.75;100.00;98679.53;1618445;87;21093;-69
2021/11/27 12:02:28;;;;;;;20.23;10.53;;;;;;;9.78;100.00;98674.57;1659439;86;21039;-70
2021/11/27 12:05:09;;;;;;;25.83;11.00;;;;;;;9.80;100.00;98675.72;1667654;85;21038;-70
2021/11/27 12:07:47;;;;;;;20.27;10.37;;;;;;;9.82;100.00;98685.80;1667691;86;21093;-70
2021/11/27 12:10:22;;;;;;;20.15;10.55;;;;;;;9.84;100.00;98686.43;1667697;86;21583;-70
2021/11/27 12:13:13;;;;;;;21.77;10.77;;;;;;;9.85;100.00;98687.59;1667657;86;21065;-70
2021/11/27 12:15:47;;;;;;;22.63;10.70;;;;;;;9.87;100.00;98683.34;1712483;82;21037;-71
2021/11/27 12:18:20;;;;;;;25.00;11.33;;;;;;;9.87;100.00;98681.47;1751739;82;21022;-70
2021/11/27 12:20:53;;;;;;;23.20;10.73;;;;;;;9.92;100.00;98686.28;1729777;82;21087;-70
2021/11/27 12:23:40;;;;;;;21.13;10.50;;;;;;;9.96;100.00;98688.06;1780716;80;21076;-70
2021/11/27 12:26:15;;;;;;;20.07;10.13;;;;;;;10.01;100.00;98691.00;1780741;81;21032;-71
2021/11/27 12:28:56;;;;;;;21.13;10.17;;;;;;;10.02;100.00;98690.80;1780609;81;20985;-70
2021/11/27 12:31:25;;;;;;;22.40;11.05;;;;;;;10.10;100.00;98688.96;1780945;81;21522;-70
2021/11/27 12:33:59;;;;;;;21.53;11.13;;;;;;;10.17;100.00;98687.95;1773329;80;21002;-70
2021/11/27 12:36:32;;;;;;;24.63;12.23;;;;;;;10.21;100.00;98692.42;1771480;81;21072;-70
2021/11/27 12:39:15;;;;;;;22.77;11.47;;;;;;;10.21;100.00;98689.20;1768409;81;21061;-70
2021/11/27 12:42:09;;;;;;;22.42;11.95;;;;;;;10.20;100.00;98700.23;1771445;81;20990;-71
2021/11/27 12:44:49;;;;;;;21.52;10.48;;;;;;;10.18;100.00;98704.48;1770682;80;21496;-70
2021/11/27 12:47:23;;;;;;;22.60;10.77;;;;;;;10.14;100.00;98707.25;1770940;81;21029;-69
2021/11/27 12:50:00;;;;;;;22.10;10.72;;;;;;;10.12;100.00;98703.09;1771303;80;21058;-69
2021/11/27 12:52:36;;;;;;;26.77;11.55;;;;;;;10.08;100.00;98697.27;1685273;85;21082;-70
2021/11/27 12:55:15;;;;;;;20.73;10.67;;;;;;;10.04;100.00;98702.75;1684989;85;21094;-70
2021/11/27 12:57:48;;;;;;;24.67;11.33;;;;;;;10.03;100.00;98694.33;1685394;85;21560;-70
2021/11/27 13:00:22;;;;;;;21.95;11.05;;;;;;;10.01;100.00;98707.20;1685119;85;21556;-71
2021/11/27 13:02:56;;;;;;;32.73;15.87;;;;;;;10.00;100.00;98702.81;1685337;85;21031;-69
2021/11/27 13:05:36;;;;;;;26.73;12.93;;;;;;;9.99;100.00;98710.63;1684950;85;21011;-71
2021/11/27 13:08:07;;;;;;;26.82;15.40;;;;;;;10.00;100.00;98706.34;1685237;85;21175;-70
2021/11/27 13:10:45;;;;;;;42.70;22.63;;;;;;;10.01;100.00;98715.30;1685037;85;21043;-71